Time;durP1;ratioP1;P1;durP2;ratioP2;P2;SDS_P1;SDS_P2;PMS_P1;PMS_P2;Temp;Humidity;BMP_temperature;BMP_pressure;BME280_temperature;BME280_humidity;BME280_pressure;Samples;Min_cycle;Max_cycle;Signal;HPM_P1;HPM_P2
2021/05/29 00:00:58;;;;;;;4.65;3.80;;;13.20;95.30;;;;;;5106344;28;20107;-40
2021/05/29 00:03:26;;;;;;;4.20;3.30;;;13.10;95.40;;;;;;5106438;28;20467;-40
2021/05/29 00:05:54;;;;;;;3.70;3.40;;;13.10;95.50;;;;;;5106371;28;20057;-40
2021/05/29 00:08:21;;;;;;;6.35;3.88;;;13.10;95.50;;;;;;5107789;28;20431;-41
2021/05/29 00:10:50;;;;;;;4.97;4.00;;;13.00;95.60;;;;;;5106277;28;20028;-41
2021/05/29 00:13:21;;;;;;;4.22;3.50;;;13.00;95.80;;;;;;5107174;28;20022;-43
2021/05/29 00:15:50;;;;;;;6.15;4.10;;;12.90;95.90;;;;;;5106254;28;20055;-39
2021/05/29 00:18:16;;;;;;;5.95;3.88;;;12.80;96.10;;;;;;5106606;28;20019;-42
2021/05/29 00:20:41;;;;;;;4.50;3.72;;;12.80;96.10;;;;;;5105999;28;20031;-38
2021/05/29 00:23:08;;;;;;;4.68;4.22;;;12.80;96.20;;;;;;5107422;28;20039;-40
2021/05/29 00:25:35;;;;;;;5.75;4.70;;;12.70;96.30;;;;;;5106091;28;20051;-40
2021/05/29 00:28:00;;;;;;;6.75;4.63;;;12.70;96.30;;;;;;5106213;28;20043;-41
2021/05/29 00:30:26;;;;;;;6.10;4.47;;;12.70;96.40;;;;;;5107241;28;20039;-41
2021/05/29 00:32:52;;;;;;;6.90;5.18;;;12.70;96.40;;;;;;5105788;28;20027;-39
2021/05/29 00:35:20;;;;;;;7.18;5.45;;;12.60;96.50;;;;;;5107418;28;20084;-40
2021/05/29 00:37:46;;;;;;;6.85;6.15;;;12.60;96.80;;;;;;5105835;28;20083;-42
2021/05/29 00:40:12;;;;;;;8.85;5.80;;;12.60;96.90;;;;;;5107178;28;20347;-40
2021/05/29 00:42:39;;;;;;;8.75;5.38;;;12.50;96.90;;;;;;5106535;28;20538;-40
2021/05/29 00:45:05;;;;;;;7.57;5.68;;;12.50;97.00;;;;;;5105943;28;20027;-40
2021/05/29 00:47:31;;;;;;;6.35;5.35;;;12.50;97.10;;;;;;5106523;28;20023;-40
2021/05/29 00:50:01;;;;;;;6.85;5.10;;;12.50;97.10;;;;;;5106750;28;20374;-40
2021/05/29 00:52:27;;;;;;;6.38;4.72;;;12.50;97.20;;;;;;5106023;28;20019;-40
2021/05/29 00:54:54;;;;;;;6.00;5.35;;;12.40;97.30;;;;;;5108178;28;20035;-42
2021/05/29 00:57:20;;;;;;;6.13;5.25;;;12.40;97.20;;;;;;5110679;28;20026;-40
2021/05/29 00:59:46;;;;;;;7.50;4.70;;;12.40;97.30;;;;;;5109302;28;20132;-41
2021/05/29 01:02:15;;;;;;;6.20;4.63;;;12.30;97.30;;;;;;5110539;27;20089;-41
2021/05/29 01:04:41;;;;;;;5.90;4.47;;;12.30;97.30;;;;;;5110270;28;20031;-43
2021/05/29 01:07:18;;;;;;;8.10;5.53;;;12.30;97.60;;;;;;5109809;28;20051;-40
2021/05/29 01:09:45;;;;;;;6.00;5.07;;;12.30;97.40;;;;;;5107282;28;20072;-40
2021/05/29 01:12:14;;;;;;;5.80;4.57;;;12.30;97.40;;;;;;5110443;28;20547;-40
2021/05/29 01:15:14;;;;;;;4.80;3.83;;;12.30;97.40;;;;;;5108684;28;20037;-40
2021/05/29 01:17:33;;;;;;;5.47;4.03;;;12.20;97.40;;;;;;5107814;28;20042;-41
2021/05/29 01:19:59;;;;;;;4.53;3.63;;;12.20;97.40;;;;;;5109500;28;20058;-38
2021/05/29 01:22:39;;;;;;;7.07;3.63;;;12.10;97.40;;;;;;5110434;28;20474;-40
2021/05/29 01:25:16;;;;;;;3.35;3.00;;;12.10;97.50;;;;;;5109719;28;20103;-40
2021/05/29 01:27:43;;;;;;;4.72;4.00;;;12.10;97.50;;;;;;5109481;28;20118;-41
2021/05/29 01:30:13;;;;;;;4.82;3.50;;;12.00;97.50;;;;;;5110162;28;20343;-38
2021/05/29 01:32:39;;;;;;;4.53;3.47;;;12.00;97.50;;;;;;5109757;28;20031;-40
2021/05/29 01:35:08;;;;;;;5.03;3.08;;;12.00;97.40;;;;;;5109490;28;20796;-40
2021/05/29 01:37:36;;;;;;;4.40;3.30;;;12.00;97.40;;;;;;5110199;27;20177;-43
2021/05/29 01:40:04;;;;;;;5.00;3.78;;;12.00;97.40;;;;;;5109553;28;20047;-42
2021/05/29 01:42:30;;;;;;;6.13;4.10;;;11.90;97.30;;;;;;5109805;27;20031;-41
2021/05/29 01:44:57;;;;;;;4.43;3.15;;;11.90;97.30;;;;;;5109356;28;20419;-40
2021/05/29 01:47:25;;;;;;;5.10;3.38;;;11.90;97.30;;;;;;5109940;28;20027;-40
2021/05/29 01:49:50;;;;;;;6.22;3.85;;;11.90;97.30;;;;;;5108022;28;20040;-40
2021/05/29 01:52:16;;;;;;;5.43;3.30;;;11.90;97.30;;;;;;5109831;28;20031;-41
2021/05/29 01:54:42;;;;;;;4.65;3.03;;;11.90;97.30;;;;;;5108924;28;20043;-41
2021/05/29 01:57:10;;;;;;;4.97;3.65;;;11.80;97.30;;;;;;5109271;28;20024;-41
2021/05/29 01:59:36;;;;;;;4.47;3.75;;;11.80;97.30;;;;;;5109271;28;20050;-40
2021/05/29 02:02:01;;;;;;;4.82;2.88;;;11.80;97.30;;;;;;5109284;28;20073;-40
2021/05/29 02:04:27;;;;;;;3.95;3.10;;;11.80;97.30;;;;;;5108990;28;20020;-41
2021/05/29 02:06:52;;;;;;;4.55;3.30;;;11.80;97.30;;;;;;5107578;28;20047;-41
2021/05/29 02:09:18;;;;;;;4.53;3.03;;;11.70;97.20;;;;;;5108758;28;20441;-40
2021/05/29 02:11:46;;;;;;;6.03;3.40;;;11.80;97.20;;;;;;5108932;28;20471;-40
2021/05/29 02:14:11;;;;;;;3.60;2.90;;;11.80;97.20;;;;;;5109335;28;20082;-38
2021/05/29 02:16:40;;;;;;;3.80;3.10;;;11.80;97.20;;;;;;5108391;28;20016;-43
2021/05/29 02:19:05;;;;;;;5.30;3.40;;;11.70;97.10;;;;;;5109397;28;20020;-41
2021/05/29 02:21:31;;;;;;;4.13;3.25;;;11.70;97.10;;;;;;5108724;28;20053;-41
2021/05/29 02:23:57;;;;;;;4.05;3.63;;;11.70;97.10;;;;;;5108627;28;20023;-38
2021/05/29 02:26:23;;;;;;;5.93;3.95;;;11.70;97.10;;;;;;5108962;28;20042;-40
2021/05/29 02:28:57;;;;;;;7.03;4.43;;;11.60;97.10;;;;;;5108648;28;20138;-41
2021/05/29 02:31:26;;;;;;;8.40;4.65;;;11.60;97.20;;;;;;5108757;28;20107;-41
2021/05/29 02:33:51;;;;;;;5.38;4.50;;;11.60;97.30;;;;;;5108096;28;20116;-39
2021/05/29 02:36:17;;;;;;;5.65;4.68;;;11.50;97.30;;;;;;5108915;28;20134;-41
2021/05/29 02:38:43;;;;;;;9.27;5.30;;;11.50;97.40;;;;;;5108175;28;20072;-39
2021/05/29 02:41:12;;;;;;;6.35;4.65;;;11.50;97.50;;;;;;5108795;28;20030;-41
2021/05/29 02:43:39;;;;;;;6.15;4.75;;;11.50;97.60;;;;;;5108428;28;20024;-38
2021/05/29 02:46:05;;;;;;;6.32;4.60;;;11.40;97.60;;;;;;5107762;28;20118;-41
2021/05/29 02:48:30;;;;;;;5.22;4.30;;;11.40;97.70;;;;;;5108303;28;20016;-40
2021/05/29 02:50:56;;;;;;;6.65;4.82;;;11.40;97.70;;;;;;5108456;28;20027;-42
2021/05/29 02:53:22;;;;;;;7.22;4.78;;;11.30;97.70;;;;;;5108271;28;20024;-41
2021/05/29 02:55:47;;;;;;;6.47;4.40;;;11.30;97.80;;;;;;5107586;28;20550;-40
2021/05/29 02:58:14;;;;;;;5.75;4.65;;;11.30;97.80;;;;;;5108257;28;20248;-35
2021/05/29 03:00:42;;;;;;;6.68;4.88;;;11.30;97.80;;;;;;5107796;28;20067;-41
2021/05/29 03:03:08;;;;;;;7.95;5.25;;;11.20;97.80;;;;;;5108371;28;20016;-40
2021/05/29 03:05:38;;;;;;;6.30;4.50;;;11.20;97.90;;;;;;5107864;28;20355;-39
2021/05/29 03:08:05;;;;;;;6.80;4.80;;;11.20;98.00;;;;;;5107791;28;20096;-39
2021/05/29 03:10:34;;;;;;;7.88;5.05;;;11.20;98.00;;;;;;5107932;28;20230;-39
2021/05/29 03:13:09;;;;;;;6.70;5.45;;;11.20;98.00;;;;;;5107353;28;20989;-40
2021/05/29 03:15:35;;;;;;;9.27;5.40;;;11.10;98.00;;;;;;5087561;28;20115;-40
2021/05/29 03:18:03;;;;;;;5.95;4.90;;;11.10;98.10;;;;;;5106389;28;20451;-40
2021/05/29 03:20:33;;;;;;;6.65;5.30;;;11.10;98.10;;;;;;5107492;28;20133;-41
2021/05/29 03:22:59;;;;;;;6.78;5.22;;;11.10;98.20;;;;;;5107509;27;20020;-40
2021/05/29 03:25:27;;;;;;;6.63;4.95;;;11.00;98.20;;;;;;5107947;28;20015;-40
2021/05/29 03:27:53;;;;;;;5.63;4.75;;;11.00;98.20;;;;;;5106834;28;20110;-40
2021/05/29 03:30:26;;;;;;;6.72;5.00;;;11.00;98.30;;;;;;5108394;28;20020;-39
2021/05/29 03:32:52;;;;;;;6.57;4.90;;;11.00;98.30;;;;;;5107279;28;20157;-41
2021/05/29 03:35:18;;;;;;;7.32;5.78;;;11.00;98.40;;;;;;5106822;28;20178;-43
2021/05/29 03:37:47;;;;;;;6.55;5.32;;;10.90;98.40;;;;;;5106896;28;20149;-40
2021/05/29 03:40:14;;;;;;;7.15;5.68;;;10.90;98.50;;;;;;5107842;28;20108;-40
2021/05/29 03:42:40;;;;;;;7.60;5.60;;;10.90;98.60;;;;;;5106470;28;20478;-38
2021/05/29 03:45:08;;;;;;;8.60;5.60;;;10.90;98.60;;;;;;5107338;28;20063;-39
2021/05/29 03:47:37;;;;;;;6.30;5.30;;;10.90;98.60;;;;;;5106951;28;20098;-45
2021/05/29 03:50:04;;;;;;;8.40;5.65;;;10.90;98.60;;;;;;5107113;28;20023;-42
2021/05/29 03:52:32;;;;;;;7.60;5.25;;;10.90;98.70;;;;;;5107181;28;20519;-39
2021/05/29 03:54:58;;;;;;;7.43;5.40;;;10.90;98.70;;;;;;5105387;28;20268;-37
2021/05/29 03:57:23;;;;;;;7.85;5.50;;;10.90;98.80;;;;;;5107525;28;20538;-40
2021/05/29 03:59:49;;;;;;;7.15;5.40;;;10.90;98.80;;;;;;5106365;28;20027;-39
2021/05/29 04:02:15;;;;;;;8.30;5.20;;;10.90;98.90;;;;;;5107082;28;20020;-39
2021/05/29 04:04:40;;;;;;;6.15;5.10;;;10.90;98.90;;;;;;5106765;28;20435;-41
2021/05/29 04:07:06;;;;;;;6.90;5.30;;;10.80;98.90;;;;;;5107200;28;20495;-40
2021/05/29 04:09:31;;;;;;;7.25;5.07;;;10.90;98.90;;;;;;5105862;28;20249;-41
2021/05/29 04:11:57;;;;;;;8.18;5.00;;;10.90;99.00;;;;;;5106976;28;20027;-40
2021/05/29 04:14:23;;;;;;;8.70;6.03;;;10.80;99.00;;;;;;5106465;28;20043;-40
2021/05/29 04:16:49;;;;;;;7.10;5.88;;;10.80;99.00;;;;;;5106166;28;20133;-39
2021/05/29 04:19:15;;;;;;;7.47;5.22;;;10.90;99.10;;;;;;5106812;28;20019;-41
2021/05/29 04:21:40;;;;;;;8.68;5.32;;;10.90;99.10;;;;;;5106255;28;20028;-39
2021/05/29 04:24:07;;;;;;;7.80;5.22;;;10.90;99.10;;;;;;5106281;28;20095;-41
2021/05/29 04:26:32;;;;;;;6.10;4.97;;;10.90;99.10;;;;;;5106720;28;20392;-42
2021/05/29 04:28:58;;;;;;;5.70;4.90;;;10.90;99.10;;;;;;5105859;28;20024;-40
2021/05/29 04:31:23;;;;;;;6.90;5.40;;;10.90;99.20;;;;;;5106667;28;20106;-40
2021/05/29 04:33:49;;;;;;;6.95;5.25;;;10.90;99.20;;;;;;5106184;28;20031;-41
2021/05/29 04:36:14;;;;;;;8.30;5.68;;;10.90;99.20;;;;;;5106529;28;20362;-40
2021/05/29 04:38:40;;;;;;;7.90;5.53;;;10.90;99.20;;;;;;5106119;28;20186;-40
2021/05/29 04:41:05;;;;;;;8.50;6.00;;;11.00;99.20;;;;;;5106551;28;20045;-40
2021/05/29 04:43:31;;;;;;;7.97;6.25;;;11.00;99.10;;;;;;5106992;28;20027;-41
2021/05/29 04:46:05;;;;;;;7.25;6.10;;;11.10;99.10;;;;;;5105995;28;20028;-42
2021/05/29 04:48:31;;;;;;;7.47;5.95;;;11.10;99.10;;;;;;5106178;28;20486;-41
2021/05/29 04:51:12;;;;;;;7.15;5.10;;;11.10;99.00;;;;;;5105850;28;20015;-40
2021/05/29 04:53:42;;;;;;;7.32;5.85;;;11.10;99.00;;;;;;5106584;28;20193;-40
2021/05/29 04:56:08;;;;;;;6.05;5.30;;;11.20;98.90;;;;;;5106560;28;20032;-39
2021/05/29 04:58:36;;;;;;;8.88;5.88;;;11.20;98.90;;;;;;5106027;28;20428;-40
2021/05/29 05:01:03;;;;;;;6.47;5.72;;;11.30;98.90;;;;;;5106174;28;20062;-40
2021/05/29 05:03:29;;;;;;;6.85;5.40;;;11.30;98.90;;;;;;5106481;28;20047;-41
2021/05/29 05:05:54;;;;;;;8.65;6.20;;;11.30;98.80;;;;;;5105107;28;20449;-39
2021/05/29 05:08:20;;;;;;;7.55;6.75;;;11.40;98.80;;;;;;5106608;28;20111;-41
2021/05/29 05:10:49;;;;;;;9.07;6.72;;;11.40;98.80;;;;;;5106198;28;20462;-41
2021/05/29 05:13:14;;;;;;;8.75;6.68;;;11.50;98.80;;;;;;5106026;28;20023;-39
2021/05/29 05:15:40;;;;;;;8.55;6.53;;;11.50;98.80;;;;;;5106075;28;20035;-41
2021/05/29 05:18:08;;;;;;;9.63;7.53;;;11.50;98.80;;;;;;5106490;28;20019;-39
2021/05/29 05:20:35;;;;;;;9.63;8.20;;;11.60;98.80;;;;;;5106174;28;20031;-39
2021/05/29 05:23:04;;;;;;;9.27;7.15;;;11.60;98.80;;;;;;5106150;28;20510;-40
2021/05/29 05:25:31;;;;;;;11.27;7.68;;;11.70;98.80;;;;;;5106207;28;20332;-40
2021/05/29 05:27:56;;;;;;;12.77;8.57;;;11.70;98.80;;;;;;5105818;28;20050;-40
2021/05/29 05:30:22;;;;;;;10.95;8.77;;;11.80;98.80;;;;;;5106761;28;20039;-40
2021/05/29 05:32:48;;;;;;;15.82;9.82;;;11.80;98.80;;;;;;5105786;28;20044;-41
2021/05/29 05:35:16;;;;;;;9.57;7.95;;;11.90;98.80;;;;;;5106150;28;20027;-41
2021/05/29 05:37:42;;;;;;;11.10;8.57;;;11.90;98.80;;;;;;5105395;28;20031;-43
2021/05/29 05:40:09;;;;;;;11.40;9.55;;;11.90;99.10;;;;;;5106553;28;20177;-39
2021/05/29 05:42:35;;;;;;;11.52;8.73;;;11.90;98.80;;;;;;5109462;28;20031;-41
2021/05/29 05:45:03;;;;;;;10.15;8.00;;;12.00;98.80;;;;;;5109432;28;20029;-41
2021/05/29 05:47:29;;;;;;;12.90;8.73;;;12.00;98.80;;;;;;5109055;28;20787;-41
2021/05/29 05:49:58;;;;;;;11.60;8.77;;;12.00;98.80;;;;;;5109830;28;20042;-41
2021/05/29 05:52:23;;;;;;;11.88;8.77;;;12.10;98.90;;;;;;5109478;28;20018;-45
2021/05/29 05:54:49;;;;;;;13.10;9.07;;;12.10;98.90;;;;;;5108783;28;20473;-41
2021/05/29 05:57:15;;;;;;;11.38;8.45;;;12.10;98.80;;;;;;5109966;28;20011;-42
2021/05/29 05:59:41;;;;;;;11.90;9.23;;;12.20;98.80;;;;;;5108840;28;20500;-41
2021/05/29 06:02:10;;;;;;;11.95;9.10;;;12.20;98.80;;;;;;5109093;28;20032;-41
2021/05/29 06:04:35;;;;;;;13.63;9.70;;;12.20;98.80;;;;;;5109380;28;20062;-41
2021/05/29 06:07:01;;;;;;;11.90;9.18;;;12.30;98.80;;;;;;5109029;28;20079;-40
2021/05/29 06:09:30;;;;;;;11.57;8.90;;;12.40;98.80;;;;;;5107905;28;20054;-42
2021/05/29 06:11:56;;;;;;;11.35;8.00;;;12.40;98.70;;;;;;5109349;28;20553;-42
2021/05/29 06:19:51;;;;;;;9.68;7.38;;;12.60;98.60;;;;;;5108838;28;20058;-41
2021/05/29 06:22:17;;;;;;;13.00;7.65;;;12.60;98.50;;;;;;5109445;28;20514;-41
2021/05/29 06:24:42;;;;;;;10.05;8.00;;;12.70;98.80;;;;;;5107892;28;20027;-39
2021/05/29 06:27:08;;;;;;;13.18;9.45;;;12.70;98.40;;;;;;5109402;28;20020;-41
2021/05/29 06:29:33;;;;;;;11.82;9.02;;;12.80;98.30;;;;;;5108263;28;20034;-41
2021/05/29 06:31:59;;;;;;;10.23;8.10;;;12.80;98.20;;;;;;5108698;28;20431;-42
2021/05/29 06:34:25;;;;;;;12.70;9.25;;;12.80;98.20;;;;;;5108774;28;20055;-41
2021/05/29 06:36:51;;;;;;;10.68;8.60;;;12.90;98.10;;;;;;5108047;28;20024;-41
2021/05/29 06:39:17;;;;;;;9.75;8.43;;;12.90;98.10;;;;;;5108612;28;20069;-41
2021/05/29 06:41:44;;;;;;;11.02;8.50;;;13.00;98.00;;;;;;5106007;28;20042;-41
2021/05/29 06:44:10;;;;;;;11.30;8.00;;;13.00;97.90;;;;;;5107178;28;20095;-40
2021/05/29 06:46:37;;;;;;;11.75;9.38;;;13.10;97.90;;;;;;5108059;28;20064;-40
2021/05/29 06:49:04;;;;;;;10.60;8.48;;;13.10;97.90;;;;;;5108100;28;20061;-40
2021/05/29 06:51:41;;;;;;;9.45;7.53;;;13.10;97.80;;;;;;5106796;28;20035;-41
2021/05/29 06:54:23;;;;;;;10.55;7.75;;;13.20;97.80;;;;;;5107522;28;20458;-41
2021/05/29 06:59:33;;;;;;;12.18;8.45;;;13.20;97.80;;;;;;5106935;28;20042;-41
2021/05/29 07:01:59;;;;;;;11.75;8.85;;;13.30;97.70;;;;;;5106771;28;20023;-41
2021/05/29 07:04:24;;;;;;;10.20;7.80;;;13.30;97.60;;;;;;5107123;28;20027;-42
2021/05/29 07:06:51;;;;;;;10.55;7.72;;;13.40;97.50;;;;;;5105565;28;20059;-39
2021/05/29 07:09:19;;;;;;;12.20;8.15;;;13.40;97.50;;;;;;5107293;28;20477;-40
2021/05/29 07:11:45;;;;;;;11.65;8.13;;;13.40;97.50;;;;;;5106109;28;20027;-40
2021/05/29 07:14:10;;;;;;;8.50;6.93;;;13.50;97.50;;;;;;5107063;28;20328;-40
2021/05/29 07:16:38;;;;;;;10.52;7.43;;;13.50;97.40;;;;;;5105840;28;20036;-40
2021/05/29 07:19:03;;;;;;;11.82;8.27;;;13.50;97.40;;;;;;5107156;28;20036;-41
2021/05/29 07:21:29;;;;;;;9.75;7.90;;;13.60;97.40;;;;;;5107031;28;20469;-43
2021/05/29 07:23:55;;;;;;;10.82;7.07;;;13.60;97.40;;;;;;5107551;28;20034;-40
2021/05/29 07:26:20;;;;;;;9.65;7.40;;;13.70;97.30;;;;;;5106695;28;20043;-40
2021/05/29 07:28:46;;;;;;;8.88;7.68;;;13.70;97.30;;;;;;5106825;28;20112;-41
2021/05/29 07:31:12;;;;;;;8.45;7.20;;;13.80;97.30;;;;;;5106691;28;20477;-38
2021/05/29 07:33:37;;;;;;;11.10;7.70;;;13.80;97.20;;;;;;5106995;28;20336;-40
2021/05/29 07:36:04;;;;;;;9.60;7.57;;;13.90;97.20;;;;;;5106723;28;20067;-40
2021/05/29 07:38:29;;;;;;;9.48;7.43;;;14.00;97.10;;;;;;5107133;28;20032;-41
2021/05/29 07:40:55;;;;;;;10.02;7.65;;;14.00;97.00;;;;;;5105460;28;20027;-42
2021/05/29 07:43:21;;;;;;;8.35;7.10;;;14.10;96.90;;;;;;5107346;28;20027;-40
2021/05/29 07:45:47;;;;;;;9.27;6.45;;;14.10;96.90;;;;;;5106824;28;20015;-40
2021/05/29 07:48:13;;;;;;;8.55;6.60;;;14.20;96.80;;;;;;5115309;27;20040;-41
2021/05/29 07:50:57;;;;;;;8.10;6.90;;;14.20;96.50;;;;;;5115794;27;20034;-39
2021/05/29 07:53:34;;;;;;;7.90;7.10;;;14.30;96.40;;;;;;5106830;28;20038;-43
2021/05/29 07:56:02;;;;;;;7.57;6.18;;;14.20;95.90;;;;;;5103874;28;20552;-39
2021/05/29 07:58:28;;;;;;;6.72;5.78;;;14.20;95.80;;;;;;5111838;27;20019;-41
2021/05/29 08:00:55;;;;;;;7.93;6.25;;;14.20;95.90;;;;;;5110302;27;20112;-39
2021/05/29 08:03:24;;;;;;;7.43;6.50;;;14.30;95.80;;;;;;5106311;28;20512;-41
2021/05/29 08:05:52;;;;;;;6.03;5.38;;;14.20;95.90;;;;;;5106136;28;20104;-41
2021/05/29 08:08:18;;;;;;;6.63;5.85;;;14.30;95.90;;;;;;5106660;28;20549;-40
2021/05/29 08:10:46;;;;;;;6.80;5.40;;;14.40;95.90;;;;;;5110488;27;20028;-44
2021/05/29 08:13:12;;;;;;;6.75;5.13;;;14.50;95.90;;;;;;5108984;27;20466;-45
2021/05/29 08:15:38;;;;;;;5.93;5.10;;;14.60;95.90;;;;;;5119281;27;20046;-40
2021/05/29 08:18:04;;;;;;;6.05;5.28;;;14.70;95.90;;;;;;5110940;27;20062;-42
2021/05/29 08:20:29;;;;;;;6.07;4.82;;;14.80;95.80;;;;;;5107304;28;20052;-40
2021/05/29 08:22:55;;;;;;;5.55;4.75;;;14.90;95.60;;;;;;5098612;28;20061;-41
2021/05/29 08:25:20;;;;;;;7.10;5.75;;;15.00;95.40;;;;;;5107785;28;20026;-42
2021/05/29 08:27:46;;;;;;;7.25;5.20;;;15.00;95.10;;;;;;5110652;28;20027;-43
2021/05/29 08:30:13;;;;;;;8.20;6.68;;;15.00;95.10;;;;;;5120852;28;20072;-41
2021/05/29 08:32:39;;;;;;;9.20;6.90;;;15.00;95.00;;;;;;5117142;27;20031;-40
2021/05/29 08:35:07;;;;;;;6.95;6.25;;;15.10;94.90;;;;;;5107104;28;20446;-42
2021/05/29 08:37:32;;;;;;;7.90;6.32;;;15.10;94.90;;;;;;5106969;28;20123;-41
2021/05/29 08:39:58;;;;;;;7.95;5.88;;;15.20;94.80;;;;;;5107336;28;20102;-42
2021/05/29 08:42:27;;;;;;;6.90;5.70;;;15.30;94.60;;;;;;5112952;28;20030;-42
2021/05/29 08:44:58;;;;;;;8.05;5.57;;;15.30;94.50;;;;;;5112467;28;20020;-40
2021/05/29 08:47:32;;;;;;;6.50;5.47;;;15.40;94.50;;;;;;5123069;27;20698;-42
2021/05/29 08:49:58;;;;;;;7.40;5.35;;;15.50;94.80;;;;;;5106492;28;20435;-42
2021/05/29 08:52:23;;;;;;;5.95;5.00;;;15.60;94.30;;;;;;5106249;28;20042;-39
2021/05/29 08:54:49;;;;;;;7.93;6.65;;;15.60;94.30;;;;;;5106234;28;20172;-40
2021/05/29 08:57:18;;;;;;;7.15;6.38;;;15.60;94.10;;;;;;5106766;28;20027;-40
2021/05/29 08:59:44;;;;;;;8.27;6.75;;;15.70;94.10;;;;;;5105797;28;20023;-41
2021/05/29 09:02:12;;;;;;;8.85;6.45;;;15.80;94.10;;;;;;5107190;28;20027;-42
2021/05/29 09:05:02;;;;;;;6.80;5.63;;;15.80;94.00;;;;;;5105180;28;20462;-42
2021/05/29 09:07:28;;;;;;;8.43;6.90;;;16.00;94.00;;;;;;5085946;28;20048;-40
2021/05/29 09:10:23;;;;;;;6.03;5.40;;;16.00;93.50;;;;;;5101913;28;20507;-40
2021/05/29 09:13:07;;;;;;;6.07;5.20;;;16.10;93.60;;;;;;5075098;28;20111;-41
2021/05/29 09:16:03;;;;;;;6.88;5.22;;;16.10;93.50;;;;;;5106218;28;20280;-39
2021/05/29 09:18:51;;;;;;;5.78;5.00;;;16.10;93.40;;;;;;5096023;28;20139;-40
2021/05/29 09:21:29;;;;;;;5.18;4.68;;;16.20;93.50;;;;;;5109112;28;20501;-41
2021/05/29 09:23:56;;;;;;;5.97;4.88;;;16.40;93.30;;;;;;5108917;28;20406;-41
2021/05/29 09:26:39;;;;;;;5.70;5.00;;;16.60;93.30;;;;;;5108841;28;20019;-45
2021/05/29 09:29:23;;;;;;;6.85;4.95;;;16.80;93.20;;;;;;5108502;28;20022;-40
2021/05/29 09:32:08;;;;;;;5.90;4.78;;;16.90;92.80;;;;;;5096851;28;20104;-43
2021/05/29 09:34:39;;;;;;;6.40;5.53;;;17.00;92.70;;;;;;5107728;28;20037;-39
2021/05/29 09:37:15;;;;;;;5.85;4.95;;;17.00;92.40;;;;;;5108741;28;20334;-41
2021/05/29 09:39:44;;;;;;;6.45;4.88;;;17.00;92.50;;;;;;5108419;27;20701;-39
2021/05/29 09:42:10;;;;;;;6.93;5.82;;;17.10;92.60;;;;;;5097466;28;20442;-41
2021/05/29 09:44:40;;;;;;;7.18;5.70;;;17.20;92.20;;;;;;5108484;28;20038;-43
2021/05/29 09:47:09;;;;;;;7.78;6.28;;;17.20;92.30;;;;;;5107202;28;20664;-42
2021/05/29 09:49:51;;;;;;;6.50;5.88;;;17.30;92.20;;;;;;5107967;28;20050;-41
2021/05/29 09:52:36;;;;;;;9.00;7.30;;;17.30;91.80;;;;;;5106398;28;20503;-41
2021/05/29 09:55:11;;;;;;;6.25;4.85;;;17.30;91.50;;;;;;5108019;28;20027;-40
2021/05/29 09:57:51;;;;;;;7.30;5.32;;;17.30;91.80;;;;;;5109358;28;20027;-40
2021/05/29 10:00:17;;;;;;;6.63;4.93;;;17.40;91.80;;;;;;5109614;28;20023;-42
2021/05/29 10:03:03;;;;;;;7.63;5.22;;;17.50;91.40;;;;;;5108812;28;20031;-41
2021/05/29 10:05:31;;;;;;;6.60;5.55;;;17.50;91.40;;;;;;5102646;27;20522;-40
2021/05/29 10:07:57;;;;;;;7.03;5.22;;;17.60;91.20;;;;;;5108415;28;20024;-41
2021/05/29 10:10:23;;;;;;;7.32;5.63;;;17.70;91.20;;;;;;5112972;27;20514;-40
2021/05/29 10:12:49;;;;;;;6.03;4.88;;;17.80;90.90;;;;;;5112897;27;20031;-43
2021/05/29 10:15:19;;;;;;;5.40;4.60;;;17.90;90.70;;;;;;5123509;27;20603;-43
2021/05/29 10:17:45;;;;;;;7.32;5.47;;;17.90;90.90;;;;;;5109465;27;20026;-40
2021/05/29 10:20:12;;;;;;;8.25;5.50;;;17.80;91.00;;;;;;5125336;27;20094;-41
2021/05/29 10:22:38;;;;;;;6.38;5.15;;;17.70;91.10;;;;;;5115508;27;20062;-40
2021/05/29 10:25:18;;;;;;;4.60;4.13;;;17.70;91.20;;;;;;5120841;27;20059;-40
2021/05/29 10:27:51;;;;;;;4.95;4.38;;;17.80;91.30;;;;;;5109775;27;20350;-42
2021/05/29 10:30:20;;;;;;;4.65;4.25;;;18.10;91.20;;;;;;5123397;27;20090;-40
2021/05/29 10:33:08;;;;;;;5.15;4.63;;;18.30;90.90;;;;;;5107915;28;20038;-40
2021/05/29 10:35:39;;;;;;;6.55;4.35;;;18.40;90.60;;;;;;5106648;27;20043;-42
2021/05/29 10:38:07;;;;;;;6.45;4.38;;;18.40;90.40;;;;;;5105736;28;20098;-39
2021/05/29 10:40:37;;;;;;;4.97;4.43;;;18.40;90.20;;;;;;5108565;28;20032;-40
2021/05/29 10:43:20;;;;;;;6.03;4.35;;;18.30;90.20;;;;;;5107192;28;20027;-41
2021/05/29 10:45:51;;;;;;;;;;;18.30;90.20;;;;;;5121958;27;20031;-41
2021/05/29 10:48:19;;;;;;;4.68;3.60;;;18.30;90.20;;;;;;5108214;28;19994;-40
2021/05/29 10:51:04;;;;;;;4.85;3.90;;;18.40;90.10;;;;;;5106207;27;20026;-41
2021/05/29 10:53:54;;;;;;;4.43;3.70;;;18.40;90.00;;;;;;5111383;27;20042;-42
2021/05/29 10:56:20;;;;;;;5.60;4.50;;;18.50;90.00;;;;;;5099893;27;20500;-40
2021/05/29 10:59:11;;;;;;;5.57;4.22;;;18.60;88.70;;;;;;5118685;27;20019;-40
2021/05/29 11:01:37;;;;;;;5.18;3.58;;;18.60;89.10;;;;;;5125426;27;20059;-41
2021/05/29 11:04:18;;;;;;;4.95;3.83;;;18.60;88.60;;;;;;5107550;27;20115;-40
2021/05/29 11:07:16;;;;;;;4.35;3.95;;;18.60;88.50;;;;;;5120645;27;20046;-42
2021/05/29 11:09:56;;;;;;;4.18;3.78;;;18.50;88.60;;;;;;5109531;27;20027;-43
2021/05/29 11:12:46;;;;;;;4.85;3.70;;;18.50;88.30;;;;;;5120452;27;20429;-40
2021/05/29 11:15:15;;;;;;;4.20;3.20;;;18.60;88.20;;;;;;5107929;28;20158;-40
2021/05/29 11:18:07;;;;;;;5.07;3.58;;;18.70;88.10;;;;;;5108451;27;20047;-40
2021/05/29 11:20:53;;;;;;;;;;;18.70;87.90;;;;;;5098061;28;20038;-40
2021/05/29 11:23:26;;;;;;;5.15;4.28;;;18.70;87.40;;;;;;5111438;27;19922;-40
2021/05/29 11:25:51;;;;;;;6.45;4.13;;;18.70;87.60;;;;;;5106455;27;20592;-40
2021/05/29 11:28:21;;;;;;;5.20;4.03;;;18.70;87.70;;;;;;5110342;27;20114;-39
2021/05/29 11:30:47;;;;;;;4.70;3.58;;;18.70;87.70;;;;;;5106449;27;20020;-39
2021/05/29 11:33:13;;;;;;;4.80;3.67;;;18.70;87.40;;;;;;5106327;28;20463;-41
2021/05/29 11:35:43;;;;;;;5.18;3.75;;;18.50;87.50;;;;;;5106754;27;20027;-40
2021/05/29 11:38:17;;;;;;;4.32;3.63;;;18.40;87.80;;;;;;5110990;27;20454;-44
2021/05/29 11:40:46;;;;;;;4.13;3.20;;;18.30;88.00;;;;;;5103261;28;20772;-45
2021/05/29 11:43:32;;;;;;;4.45;3.20;;;18.20;87.90;;;;;;5107851;28;20111;-43
2021/05/29 11:46:03;;;;;;;5.65;3.33;;;18.30;86.70;;;;;;5109083;27;20047;-42
2021/05/29 11:48:30;;;;;;;3.88;3.45;;;18.40;86.70;;;;;;5119853;27;20069;-42
2021/05/29 11:51:12;;;;;;;4.38;3.53;;;18.50;86.00;;;;;;5107947;28;20051;-40
2021/05/29 11:53:54;;;;;;;5.00;3.38;;;18.60;86.30;;;;;;5108813;28;20019;-43
2021/05/29 11:56:38;;;;;;;6.18;3.47;;;18.60;86.00;;;;;;5105621;28;20032;-45
2021/05/29 11:59:06;;;;;;;4.28;3.40;;;18.50;85.90;;;;;;5108267;28;20024;-45
2021/05/29 12:01:35;;;;;;;4.38;3.35;;;18.40;86.30;;;;;;5107682;28;20435;-42
2021/05/29 12:04:05;;;;;;;4.03;2.80;;;18.30;86.60;;;;;;5112318;27;20433;-42
2021/05/29 12:06:43;;;;;;;3.25;2.75;;;18.40;87.10;;;;;;5103848;28;20047;-41
2021/05/29 12:09:16;;;;;;;3.80;3.00;;;18.60;86.90;;;;;;5107036;28;20066;-37
2021/05/29 12:11:46;;;;;;;4.95;3.22;;;18.90;86.00;;;;;;5107746;27;20038;-40
2021/05/29 12:14:18;;;;;;;5.85;3.05;;;19.00;84.90;;;;;;5113676;27;20019;-41
2021/05/29 12:16:49;;;;;;;2.95;2.70;;;19.00;84.50;;;;;;5111941;27;20023;-41
2021/05/29 12:19:53;;;;;;;3.60;2.63;;;19.00;84.70;;;;;;5105596;28;20016;-39
2021/05/29 12:22:29;;;;;;;4.18;2.80;;;18.90;83.50;;;;;;5113167;27;20031;-42
2021/05/29 12:25:06;;;;;;;2.78;2.40;;;18.90;84.30;;;;;;5114798;27;20081;-40
2021/05/29 12:27:39;;;;;;;4.38;2.70;;;18.90;84.50;;;;;;5106442;28;20443;-42
2021/05/29 12:30:13;;;;;;;2.67;2.47;;;19.10;84.20;;;;;;5107822;28;20084;-41
2021/05/29 12:32:39;;;;;;;4.28;3.30;;;19.20;83.30;;;;;;5109773;28;20099;-42
2021/05/29 12:35:11;;;;;;;2.65;2.38;;;19.10;82.00;;;;;;5119066;28;20115;-41
2021/05/29 12:37:37;;;;;;;4.10;3.20;;;19.00;82.90;;;;;;5105558;28;20051;-40
2021/05/29 12:40:08;;;;;;;5.18;2.67;;;19.10;83.40;;;;;;5112363;27;20042;-41
2021/05/29 12:42:43;;;;;;;4.50;2.70;;;19.20;82.90;;;;;;5111571;28;20016;-41
2021/05/29 12:45:17;;;;;;;3.70;2.63;;;19.20;82.40;;;;;;5118958;28;20515;-40
2021/05/29 12:47:53;;;;;;;3.53;2.58;;;19.20;82.40;;;;;;5105916;28;20030;-40
2021/05/29 12:50:20;;;;;;;3.10;2.60;;;19.10;83.00;;;;;;5114621;27;20034;-41
2021/05/29 12:52:45;;;;;;;3.85;2.38;;;19.00;83.30;;;;;;5119468;27;20019;-40
2021/05/29 12:55:24;;;;;;;3.83;2.33;;;18.90;83.40;;;;;;5125999;27;20118;-41
2021/05/29 12:57:50;;;;;;;2.45;2.25;;;19.00;83.30;;;;;;5109643;27;20019;-41
2021/05/29 13:00:20;;;;;;;3.78;2.60;;;19.10;82.80;;;;;;5110381;28;20020;-40
2021/05/29 13:08:33;;;;;;;3.85;2.60;;;18.90;82.50;;;;;;5115267;27;20035;-40
2021/05/29 13:11:01;;;;;;;2.50;2.28;;;18.90;81.70;;;;;;5122991;27;20023;-41